createdAt,value
2023-08-05T00:19:01.468Z,100404.30
2023-08-05T00:24:02.938Z,100398.40
2023-08-05T00:29:04.309Z,100398.26
2023-08-05T00:34:06.182Z,100413.00
2023-08-05T00:39:07.494Z,100421.35
2023-08-05T00:44:08.808Z,100424.70
2023-08-05T00:49:11.088Z,100425.97
2023-08-05T00:54:12.955Z,100426.50
2023-08-05T00:59:15.307Z,100427.81
2023-08-05T01:04:16.914Z,100416.33
2023-08-05T01:09:18.539Z,100405.02
2023-08-05T01:14:19.996Z,100401.61
2023-08-05T01:19:27.181Z,100391.88
2023-08-05T01:24:39.923Z,100387.30
2023-08-05T01:29:41.390Z,100374.36
2023-08-05T01:34:43.707Z,100369.91
2023-08-05T01:39:44.974Z,100366.30
2023-08-05T01:44:46.963Z,100370.48
2023-08-05T01:49:48.265Z,100366.35
2023-08-05T01:54:49.709Z,100367.33
2023-08-05T01:59:51.015Z,100370.34
2023-08-05T02:04:52.328Z,100372.71
2023-08-05T02:09:53.683Z,100374.35
2023-08-05T02:14:55.035Z,100367.42
2023-08-05T02:19:56.630Z,100368.01
2023-08-05T02:24:57.895Z,100373.56
2023-08-05T02:29:59.230Z,100371.21
2023-08-05T02:35:00.536Z,100369.52
2023-08-05T02:40:02.233Z,100369.32
2023-08-05T02:45:04.177Z,100359.30
2023-08-05T02:50:09.769Z,100356.63
2023-08-05T02:55:11.009Z,100353.73
2023-08-05T03:00:12.823Z,100348.08
2023-08-05T03:05:14.269Z,100339.83
2023-08-05T03:10:16.007Z,100341.92
2023-08-05T03:15:17.488Z,100345.58
2023-08-05T03:20:35.082Z,100345.96
2023-08-05T03:25:41.257Z,100360.31
2023-08-05T03:30:43.209Z,100364.73
2023-08-05T03:35:48.708Z,100368.66
2023-08-05T03:40:52.911Z,100371.71
2023-08-05T03:45:54.503Z,100382.53
2023-08-05T03:50:56.027Z,100390.10
2023-08-05T03:55:57.478Z,100400.55
2023-08-05T04:01:01.187Z,100405.66
2023-08-05T04:06:03.112Z,100404.04
2023-08-05T04:11:05.611Z,100395.64
2023-08-05T04:16:09.274Z,100378.23
2023-08-05T04:21:11.387Z,100372.61
2023-08-05T04:26:13.028Z,100369.00
2023-08-05T04:31:14.815Z,100369.27
2023-08-05T04:36:16.130Z,100378.86
2023-08-05T04:41:17.424Z,100377.67
2023-08-05T04:46:18.834Z,100378.31
2023-08-05T04:51:20.145Z,100380.66
2023-08-05T04:56:25.700Z,100390.55
2023-08-05T05:01:27.307Z,100387.77
2023-08-05T05:06:28.588Z,100386.63
2023-08-05T05:11:29.870Z,100384.96
2023-08-05T05:16:31.241Z,100391.36
2023-08-05T05:21:32.662Z,100402.52
2023-08-05T05:26:34.127Z,100402.92
2023-08-05T05:31:35.494Z,100404.48
2023-08-05T05:36:36.921Z,100403.56
2023-08-05T05:41:38.214Z,100402.30
2023-08-05T05:46:39.680Z,100401.55
2023-08-05T05:51:42.816Z,100402.20
2023-08-05T05:56:44.388Z,100403.73
2023-08-05T06:01:45.770Z,100411.27
2023-08-05T06:06:49.153Z,100421.67
2023-08-05T06:11:50.791Z,100409.72
2023-08-05T06:16:52.392Z,100405.54
2023-08-05T06:21:54.242Z,100407.59
2023-08-05T06:26:55.939Z,100401.69
2023-08-05T06:31:57.253Z,100394.25
2023-08-05T06:36:58.583Z,100389.09
2023-08-05T06:42:00.267Z,100393.19
2023-08-05T06:47:03.045Z,100394.48
2023-08-05T06:52:05.573Z,100397.17
2023-08-05T06:57:07.886Z,100396.66
2023-08-05T07:02:09.193Z,100407.83
2023-08-05T07:07:10.481Z,100413.67
2023-08-05T07:12:11.775Z,100404.68
2023-08-05T07:17:13.107Z,100392.84
2023-08-05T07:22:14.381Z,100382.73
2023-08-05T07:27:15.850Z,100380.59
2023-08-05T07:32:17.177Z,100384.67
2023-08-05T07:37:18.826Z,100389.22
2023-08-05T07:42:23.338Z,100384.88
2023-08-05T07:47:25.488Z,100391.25
2023-08-05T07:52:26.897Z,100387.70
2023-08-05T07:57:28.243Z,100381.30
2023-08-05T08:02:29.549Z,100368.17
2023-08-05T08:07:31.480Z,100362.23
2023-08-05T08:12:32.771Z,100349.48
2023-08-05T08:17:34.105Z,100341.57
2023-08-05T08:22:35.871Z,100338.94
2023-08-05T08:27:37.450Z,100341.14
2023-08-05T08:32:39.243Z,100343.48
2023-08-05T08:37:40.691Z,100325.44
2023-08-05T08:42:43.390Z,100304.27
2023-08-05T08:47:47.095Z,100307.83
2023-08-05T08:52:49.961Z,100310.23
2023-08-05T08:57:51.731Z,100315.20
2023-08-05T09:02:53.842Z,100320.48
2023-08-05T09:07:56.055Z,100323.64
2023-08-05T09:12:58.501Z,100321.15
2023-08-05T09:18:01.540Z,100317.95
2023-08-05T09:23:06.512Z,100326.84
2023-08-05T09:28:08.715Z,100327.60
2023-08-05T09:33:10.057Z,100321.23
2023-08-05T09:38:11.386Z,100319.62
2023-08-05T09:43:15.081Z,100314.15
2023-08-05T09:48:16.973Z,100303.23
2023-08-05T09:53:22.578Z,100300.23
2023-08-05T09:58:24.096Z,100290.84
2023-08-05T10:03:27.102Z,100297.68
2023-08-05T10:08:28.767Z,100297.14
2023-08-05T10:13:37.780Z,100300.50
2023-08-05T10:18:39.409Z,100294.86
2023-08-05T10:23:40.905Z,100291.12
2023-08-05T10:28:43.112Z,100294.55
2023-08-05T10:34:18.017Z,100296.13
2023-08-05T10:39:41.127Z,100302.10
2023-08-05T10:44:42.513Z,100302.59
2023-08-05T10:49:43.830Z,100297.93
2023-08-05T10:54:47.350Z,100303.98
2023-08-05T11:00:01.688Z,100311.20
2023-08-05T11:05:08.170Z,100312.98
2023-08-05T11:10:12.545Z,100292.52
2023-08-05T11:15:13.915Z,100276.00
2023-08-05T11:20:15.253Z,100269.23
2023-08-05T11:25:18.802Z,100283.73
2023-08-05T11:30:20.678Z,100278.27
2023-08-05T11:35:23.437Z,100291.11
2023-08-05T11:40:25.511Z,100299.18
2023-08-05T11:45:27.007Z,100303.70
2023-08-05T11:50:36.033Z,100298.29
2023-08-05T11:55:40.043Z,100281.65
2023-08-05T12:00:52.211Z,100278.34
2023-08-05T12:06:01.213Z,100279.30
2023-08-05T12:11:02.775Z,100273.82
2023-08-05T12:16:16.592Z,100269.68
2023-08-05T12:21:17.953Z,100272.49
2023-08-05T12:26:27.169Z,100275.23
2023-08-05T12:31:31.675Z,100275.42
2023-08-05T12:36:33.038Z,100278.53
2023-08-05T12:41:34.291Z,100290.36
2023-08-05T12:46:35.962Z,100297.08
2023-08-05T12:51:37.276Z,100297.71
2023-08-05T12:56:38.581Z,100304.34
2023-08-05T13:01:40.254Z,100302.52
2023-08-05T13:06:41.628Z,100301.54
2023-08-05T13:11:42.950Z,100295.06
2023-08-05T13:16:44.461Z,100279.86
2023-08-05T13:21:46.009Z,100274.58
2023-08-05T13:26:47.348Z,100279.13
2023-08-05T13:31:48.608Z,100282.56
2023-08-05T13:36:50.233Z,100288.02
2023-08-05T13:41:57.551Z,100283.20
2023-08-05T13:46:59.177Z,100274.23
2023-08-05T13:52:00.537Z,100272.98
2023-08-05T13:57:02.743Z,100264.93
2023-08-05T14:02:04.698Z,100262.40
2023-08-05T14:07:06.181Z,100256.36
2023-08-05T14:12:08.121Z,100250.63
2023-08-05T14:17:09.464Z,100245.66
2023-08-05T14:22:12.143Z,100244.35
2023-08-05T14:27:13.744Z,100241.34
2023-08-05T14:32:15.068Z,100233.08
2023-08-05T14:37:16.545Z,100231.83
2023-08-05T14:42:17.807Z,100238.12
2023-08-05T14:47:19.148Z,100242.89
2023-08-05T14:52:20.581Z,100246.95
2023-08-05T14:57:21.986Z,100245.70
2023-08-05T15:02:23.337Z,100235.36
2023-08-05T15:07:25.116Z,100236.04
2023-08-05T15:12:26.408Z,100236.58
2023-08-05T15:17:27.987Z,100242.52
2023-08-05T15:22:29.411Z,100240.63
2023-08-05T15:27:30.993Z,100239.37
2023-08-05T15:32:32.734Z,100242.23
2023-08-05T15:37:34.048Z,100239.30
2023-08-05T15:42:35.443Z,100233.52
2023-08-05T15:47:36.772Z,100232.98
2023-08-05T15:52:38.165Z,100224.38
2023-08-05T15:57:40.004Z,100220.64
2023-08-05T16:02:41.810Z,100225.29
2023-08-05T16:07:43.465Z,100219.39
2023-08-05T16:12:44.819Z,100207.36
2023-08-05T16:17:46.148Z,100193.09
2023-08-05T16:22:47.522Z,100191.89
2023-08-05T16:27:48.828Z,100192.70
2023-08-05T16:32:50.147Z,100192.64
2023-08-05T16:37:53.823Z,100182.03
2023-08-05T16:42:55.128Z,100170.83
2023-08-05T16:47:56.437Z,100169.86
2023-08-05T16:52:57.798Z,100170.21
2023-08-05T16:57:59.087Z,100175.86
2023-08-05T17:03:00.745Z,100173.71
2023-08-05T17:08:02.465Z,100166.45
2023-08-05T17:13:03.897Z,100158.40
2023-08-05T17:18:05.247Z,100158.95
2023-08-05T17:23:06.675Z,100163.14
2023-08-05T17:28:08.620Z,100153.70
2023-08-05T17:33:12.055Z,100159.27
2023-08-05T17:38:13.385Z,100163.54
2023-08-05T17:43:14.828Z,100159.73
2023-08-05T17:48:19.074Z,100157.89
2023-08-05T17:53:25.548Z,100143.48
2023-08-05T17:58:27.480Z,100137.26
2023-08-05T18:03:28.856Z,100135.96
2023-08-05T18:08:30.154Z,100138.85
2023-08-05T18:13:31.446Z,100140.77
2023-08-05T18:18:32.759Z,100151.39
2023-08-05T18:23:34.178Z,100165.57
2023-08-05T18:28:35.523Z,100159.48
2023-08-05T18:33:37.001Z,100166.30
2023-08-05T18:38:38.333Z,100178.16
2023-08-05T18:43:39.985Z,100181.65
2023-08-05T18:48:41.501Z,100161.92
2023-08-05T18:53:42.807Z,100156.96
2023-08-05T18:58:44.078Z,100158.55
2023-08-05T19:03:45.494Z,100157.56
2023-08-05T19:08:46.863Z,100161.52
2023-08-05T19:13:48.293Z,100174.53
2023-08-05T19:18:49.619Z,100190.99
2023-08-05T19:23:50.933Z,100190.98
2023-08-05T19:28:52.238Z,100180.58
2023-08-05T19:33:53.615Z,100161.45
2023-08-05T19:38:54.873Z,100131.73
2023-08-05T19:43:56.193Z,100133.18
2023-08-05T19:48:57.604Z,100139.63
2023-08-05T19:53:58.988Z,100114.25
2023-08-05T19:59:00.351Z,100055.44
2023-08-05T20:04:01.725Z,100067.53
2023-08-05T20:09:03.057Z,100068.59
2023-08-05T20:14:04.428Z,100070.54
2023-08-05T20:19:05.775Z,100081.08
2023-08-05T20:24:07.122Z,100074.92
2023-08-05T20:29:08.647Z,100061.30
2023-08-05T20:34:09.933Z,100067.21
2023-08-05T20:39:12.295Z,100065.90
2023-08-05T20:44:13.648Z,100046.84
2023-08-05T20:49:14.930Z,100025.80
2023-08-05T20:54:16.224Z,100011.46
2023-08-05T20:59:17.542Z,100032.22
2023-08-05T21:04:19.786Z,100043.80
2023-08-05T21:09:21.109Z,100042.70
2023-08-05T21:14:22.451Z,100035.29
2023-08-05T21:19:23.819Z,100017.62
2023-08-05T21:24:25.176Z,100010.23
2023-08-05T21:29:26.483Z,100006.31
2023-08-05T21:34:27.802Z,100005.75
2023-08-05T21:39:29.174Z,99997.94
2023-08-05T21:44:30.511Z,99979.60
2023-08-05T21:49:31.999Z,99968.33
2023-08-05T21:54:33.499Z,99942.34
2023-08-05T21:59:35.349Z,99920.25
2023-08-05T22:04:36.827Z,99899.73
2023-08-05T22:09:38.305Z,99882.25
2023-08-05T22:14:39.705Z,99884.48
2023-08-05T22:19:41.236Z,99892.17
2023-08-05T22:24:42.722Z,99892.98
2023-08-05T22:29:44.293Z,99898.88
2023-08-05T22:34:45.597Z,99897.54
2023-08-05T22:39:47.253Z,99899.19
2023-08-05T22:44:52.997Z,99898.40
2023-08-05T22:49:54.181Z,99892.77
2023-08-05T22:54:55.497Z,99881.28
2023-08-05T22:59:57.033Z,99875.37
2023-08-05T23:04:58.448Z,99868.84
2023-08-05T23:10:02.487Z,99854.77
2023-08-05T23:15:04.392Z,99847.21
2023-08-05T23:20:06.903Z,99829.35
2023-08-05T23:25:08.533Z,99802.11
2023-08-05T23:30:10.144Z,99794.21
2023-08-05T23:35:11.860Z,99790.77
2023-08-05T23:40:13.297Z,99790.52
2023-08-05T23:45:15.465Z,99791.76
2023-08-05T23:50:17.438Z,99781.17
2023-08-05T23:55:18.807Z,99783.79
